createdAt,value
2019-01-11T00:00:37.020Z,39.54
2019-01-11T00:01:37.014Z,39.04
2019-01-11T00:02:36.996Z,38.54
2019-01-11T00:03:37.007Z,39.73
2019-01-11T00:04:36.998Z,38.92
2019-01-11T00:05:36.968Z,38.53
2019-01-11T00:06:36.957Z,39.53
2019-01-11T00:07:36.947Z,39.03
2019-01-11T00:08:36.956Z,39.03
2019-01-11T00:09:36.932Z,38.53
2019-01-11T00:10:36.914Z,38.72
2019-01-11T00:11:36.907Z,38.82
2019-01-11T00:12:36.893Z,39.12
2019-01-11T00:13:36.889Z,38.82
2019-01-11T00:14:36.886Z,38.62
2019-01-11T00:15:36.867Z,38.62
2019-01-11T00:16:36.847Z,39.04
2019-01-11T00:17:36.846Z,39.14
2019-01-11T00:18:36.836Z,40.43
2019-01-11T00:19:36.842Z,39.83
2019-01-11T00:20:36.808Z,38.82
2019-01-11T00:21:36.807Z,38.32
2019-01-11T00:22:36.792Z,39.23
2019-01-11T00:23:36.779Z,39.03
2019-01-11T00:24:36.796Z,38.12
2019-01-11T00:25:36.756Z,38.72
2019-01-11T00:26:36.750Z,37.62
2019-01-11T00:27:36.731Z,38.62
2019-01-11T00:28:36.720Z,38.82
2019-01-11T00:29:36.713Z,38.32
2019-01-11T00:30:36.717Z,38.92
2019-01-11T00:31:36.688Z,38.84
2019-01-11T00:32:36.680Z,38.62
2019-01-11T00:33:36.676Z,38.92
2019-01-11T00:34:36.662Z,38.54
2019-01-11T00:35:36.663Z,38.64
2019-01-11T00:36:36.688Z,38.94
2019-01-11T00:37:36.628Z,39.34
2019-01-11T00:38:36.612Z,39.45
2019-01-11T00:39:36.607Z,40.35
2019-01-11T00:40:36.616Z,39.54
2019-01-11T00:41:36.587Z,38.44
2019-01-11T00:42:36.577Z,39.75
2019-01-11T00:43:36.565Z,38.42
2019-01-11T00:44:36.554Z,38.90
2019-01-11T00:45:36.543Z,38.20
2019-01-11T00:46:36.541Z,38.90
2019-01-11T00:47:36.521Z,38.20
2019-01-11T00:48:36.508Z,37.68
2019-01-11T00:49:36.500Z,38.10
2019-01-11T00:50:36.490Z,37.90
2019-01-11T00:51:36.494Z,37.59
2019-01-11T00:52:36.468Z,37.80
2019-01-11T00:53:36.465Z,37.40
2019-01-11T00:54:36.444Z,38.10
2019-01-11T00:55:36.441Z,38.10
2019-01-11T00:56:36.455Z,37.40
2019-01-11T00:57:36.417Z,38.00
2019-01-11T00:58:36.410Z,37.90
2019-01-11T00:59:36.395Z,39.01
2019-01-11T01:00:36.384Z,38.70
2019-01-11T01:01:36.382Z,38.10
2019-01-11T01:02:36.383Z,37.80
2019-01-11T01:03:36.353Z,37.50
2019-01-11T01:04:36.342Z,37.70
2019-01-11T01:05:36.338Z,37.79
2019-01-11T01:06:36.322Z,38.18
2019-01-11T01:07:36.325Z,37.79
2019-01-11T01:08:36.309Z,37.48
2019-01-11T01:09:36.290Z,37.18
2019-01-11T01:10:36.317Z,37.28
2019-01-11T01:11:36.276Z,37.59
2019-01-11T01:12:36.285Z,37.79
2019-01-11T01:13:36.251Z,37.38
2019-01-11T01:14:36.878Z,37.68
2019-01-11T01:15:36.229Z,37.80
2019-01-11T01:16:36.215Z,37.28
2019-01-11T01:17:36.213Z,37.79
2019-01-11T01:18:36.214Z,37.60
2019-01-11T01:19:36.182Z,38.20
2019-01-11T01:20:36.174Z,37.70
2019-01-11T01:21:36.157Z,38.81
2019-01-11T01:22:36.150Z,38.20
2019-01-11T01:23:36.204Z,37.50
2019-01-11T01:24:36.132Z,38.31
2019-01-11T01:25:36.119Z,37.50
2019-01-11T01:26:36.108Z,37.00
2019-01-11T01:27:36.105Z,37.98
2019-01-11T01:28:36.114Z,37.28
2019-01-11T01:29:36.080Z,37.70
2019-01-11T01:30:36.065Z,37.80
2019-01-11T01:31:36.063Z,37.40
2019-01-11T01:32:36.047Z,37.50
2019-01-11T01:33:36.033Z,37.70
2019-01-11T01:34:36.040Z,37.40
2019-01-11T01:35:36.021Z,37.80
2019-01-11T01:36:36.000Z,37.40
2019-01-11T01:37:35.994Z,37.60
2019-01-11T01:38:35.985Z,38.51
2019-01-11T01:39:36.021Z,38.10
2019-01-11T01:40:35.956Z,37.40
2019-01-11T01:41:35.948Z,37.50
2019-01-11T01:42:35.936Z,37.68
2019-01-11T01:43:35.927Z,37.88
2019-01-11T01:44:35.940Z,37.68
2019-01-11T01:45:35.915Z,38.00
2019-01-11T01:46:35.895Z,37.68
2019-01-11T01:47:35.882Z,37.98
2019-01-11T01:48:35.879Z,36.98
2019-01-11T01:49:35.870Z,37.40
2019-01-11T01:50:35.865Z,37.70
2019-01-11T01:51:35.845Z,37.90
2019-01-11T01:52:35.828Z,38.00
2019-01-11T01:53:35.818Z,37.70
2019-01-11T01:54:35.811Z,37.70
2019-01-11T01:55:35.810Z,37.90
2019-01-11T01:56:35.787Z,37.70
2019-01-11T01:57:35.788Z,37.80
2019-01-11T01:58:35.770Z,37.79
2019-01-11T01:59:35.755Z,37.30
2019-01-11T02:00:35.764Z,37.30
2019-01-11T02:01:35.735Z,37.80
2019-01-11T02:02:35.723Z,37.70
2019-01-11T02:03:35.713Z,37.90
2019-01-11T02:04:35.700Z,37.40
2019-01-11T02:05:35.722Z,37.70
2019-01-11T02:06:35.682Z,37.60
2019-01-11T02:07:35.673Z,36.20
2019-01-11T02:08:35.664Z,37.52
2019-01-11T02:09:35.650Z,38.31
2019-01-11T02:10:35.641Z,37.80
2019-01-11T02:11:35.647Z,38.20
2019-01-11T02:12:35.618Z,38.20
2019-01-11T02:13:35.606Z,38.00
2019-01-11T02:14:35.597Z,37.60
2019-01-11T02:15:35.587Z,37.30
2019-01-11T02:16:35.602Z,37.40
2019-01-11T02:17:35.563Z,37.48
2019-01-11T02:18:35.559Z,37.87
2019-01-11T02:19:35.546Z,37.27
2019-01-11T02:20:35.531Z,37.57
2019-01-11T02:21:35.521Z,37.07
2019-01-11T02:22:35.531Z,37.07
2019-01-11T02:23:35.499Z,36.96
2019-01-11T02:24:35.507Z,36.76
2019-01-11T02:25:35.480Z,37.37
2019-01-11T02:26:35.471Z,36.66
2019-01-11T02:27:35.475Z,37.28
2019-01-11T02:28:35.493Z,36.58
2019-01-11T02:29:35.461Z,36.68
2019-01-11T02:30:35.427Z,37.50
2019-01-11T02:31:35.417Z,37.20
2019-01-11T02:32:35.442Z,37.90
2019-01-11T02:33:35.392Z,37.30
2019-01-11T02:34:35.398Z,37.20
2019-01-11T02:35:35.379Z,37.90
2019-01-11T02:36:35.367Z,38.22
2019-01-11T02:37:35.352Z,37.72
2019-01-11T02:38:35.359Z,37.82
2019-01-11T02:39:35.338Z,37.72
2019-01-11T02:40:35.317Z,38.22
2019-01-11T02:41:35.317Z,38.12
2019-01-11T02:42:35.298Z,38.42
2019-01-11T02:43:35.302Z,38.72
2019-01-11T02:44:35.274Z,38.02
2019-01-11T02:45:35.273Z,38.40
2019-01-11T02:46:35.259Z,37.80
2019-01-11T02:47:35.250Z,37.79
2019-01-11T02:48:35.251Z,37.28
2019-01-11T02:49:40.043Z,37.28
2019-01-11T02:50:36.213Z,37.98
2019-01-11T02:51:35.200Z,37.08
2019-01-11T02:52:35.191Z,37.48
2019-01-11T02:53:35.208Z,36.58
2019-01-11T02:54:35.170Z,36.98
2019-01-11T02:55:35.172Z,37.28
2019-01-11T02:56:35.154Z,36.68
2019-01-11T02:57:35.136Z,36.78
2019-01-11T02:58:35.131Z,37.08
2019-01-11T02:59:35.135Z,37.70
2019-01-11T03:00:35.108Z,37.70
2019-01-11T03:01:35.098Z,37.50
2019-01-11T03:02:35.091Z,37.50
2019-01-11T03:03:35.074Z,37.88
2019-01-11T03:04:35.080Z,37.60
2019-01-11T03:05:35.058Z,37.70
2019-01-11T03:06:35.041Z,37.28
2019-01-11T03:07:35.028Z,36.48
2019-01-11T03:08:35.021Z,37.08
2019-01-11T03:09:35.043Z,37.59
2019-01-11T03:10:34.995Z,36.98
2019-01-11T03:11:34.988Z,37.08
2019-01-11T03:12:34.986Z,36.98
2019-01-11T03:13:34.976Z,37.10
2019-01-11T03:14:34.956Z,37.20
2019-01-11T03:15:34.969Z,37.70
2019-01-11T03:16:34.935Z,37.70
2019-01-11T03:17:34.924Z,37.90
2019-01-11T03:18:34.912Z,38.10
2019-01-11T03:19:34.905Z,37.68
2019-01-11T03:20:34.911Z,37.68
2019-01-11T03:21:34.887Z,37.38
2019-01-11T03:22:34.878Z,37.27
2019-01-11T03:23:34.865Z,36.66
2019-01-11T03:24:34.852Z,36.28
2019-01-11T03:25:34.859Z,36.18
2019-01-11T03:26:34.839Z,36.28
2019-01-11T03:27:34.825Z,36.30
2019-01-11T03:28:34.814Z,37.28
2019-01-11T03:29:34.919Z,36.98
2019-01-11T03:30:34.805Z,37.70
2019-01-11T03:31:34.785Z,37.60
2019-01-11T03:32:34.773Z,37.60
2019-01-11T03:33:34.760Z,37.90
2019-01-11T03:34:34.750Z,37.68
2019-01-11T03:35:34.763Z,37.60
2019-01-11T03:36:34.730Z,38.10
2019-01-11T03:37:34.714Z,38.00
2019-01-11T03:38:34.707Z,37.18
2019-01-11T03:39:34.696Z,37.28
2019-01-11T03:40:34.686Z,36.68
2019-01-11T03:41:34.687Z,36.38
2019-01-11T03:42:34.666Z,37.28
2019-01-11T03:43:34.652Z,37.59
2019-01-11T03:44:34.642Z,36.18
2019-01-11T03:45:34.636Z,36.58
2019-01-11T03:46:34.631Z,37.80
2019-01-11T03:47:34.612Z,37.50
2019-01-11T03:48:34.609Z,37.30
2019-01-11T03:49:34.601Z,37.60
2019-01-11T03:50:34.588Z,37.70
2019-01-11T03:51:34.582Z,37.90
2019-01-11T03:52:34.558Z,37.80
2019-01-11T03:53:34.544Z,38.09
2019-01-11T03:54:34.534Z,36.28
2019-01-11T03:55:34.526Z,37.08
2019-01-11T03:56:34.536Z,36.18
2019-01-11T03:57:34.504Z,36.50
2019-01-11T03:58:34.497Z,36.40
2019-01-11T03:59:34.487Z,36.50
2019-01-11T04:00:34.478Z,37.60
2019-01-11T04:01:34.486Z,37.40
2019-01-11T04:02:34.453Z,37.70
2019-01-11T04:03:34.439Z,36.50
2019-01-11T04:04:34.428Z,37.52
2019-01-11T04:05:34.422Z,37.92
2019-01-11T04:06:34.412Z,37.72
2019-01-11T04:07:34.413Z,37.42
2019-01-11T04:08:34.399Z,37.92
2019-01-11T04:09:34.389Z,37.62
2019-01-11T04:10:34.372Z,37.72
2019-01-11T04:11:34.356Z,37.72
2019-01-11T04:12:34.395Z,37.44
2019-01-11T04:13:34.334Z,37.44
2019-01-11T04:14:34.325Z,37.44
2019-01-11T04:15:34.314Z,38.74
2019-01-11T04:16:34.303Z,38.74
2019-01-11T04:17:34.310Z,37.94
2019-01-11T04:18:34.281Z,38.72
2019-01-11T04:19:34.269Z,37.70
2019-01-11T04:20:34.262Z,37.60
2019-01-11T04:21:34.250Z,37.79
2019-01-11T04:22:34.259Z,37.57
2019-01-11T04:23:34.229Z,36.85
2019-01-11T04:24:34.224Z,36.43
2019-01-11T04:25:34.209Z,36.03
2019-01-11T04:26:34.204Z,35.43
2019-01-11T04:27:34.213Z,35.51
2019-01-11T04:28:34.176Z,35.10
2019-01-11T04:29:34.171Z,34.48
2019-01-11T04:30:34.155Z,34.58
2019-01-11T04:31:34.148Z,34.38
2019-01-11T04:32:34.163Z,33.98
2019-01-11T04:33:34.129Z,34.36
2019-01-11T04:34:34.113Z,34.16
2019-01-11T04:35:34.101Z,34.44
2019-01-11T04:36:34.097Z,34.25
2019-01-11T04:37:34.078Z,33.75
2019-01-11T04:38:34.084Z,34.34
2019-01-11T04:39:34.056Z,34.05
2019-01-11T04:40:34.532Z,33.76
2019-01-11T04:41:34.039Z,34.68
2019-01-11T04:42:34.032Z,34.38
2019-01-11T04:43:34.040Z,34.59
2019-01-11T04:44:34.010Z,34.71
2019-01-11T04:45:33.999Z,34.71
2019-01-11T04:46:33.986Z,34.93
2019-01-11T04:47:33.985Z,35.03
2019-01-11T04:48:33.985Z,34.64
2019-01-11T04:49:33.957Z,36.35
2019-01-11T04:50:33.950Z,35.35
2019-01-11T04:51:33.935Z,36.46
2019-01-11T04:52:33.931Z,35.96
2019-01-11T04:53:33.932Z,36.26
2019-01-11T04:54:33.914Z,36.65
2019-01-11T04:55:33.897Z,36.13
2019-01-11T04:56:33.892Z,36.01
2019-01-11T04:57:33.877Z,34.99
2019-01-11T04:58:33.886Z,34.58
2019-01-11T04:59:33.859Z,34.36
2019-01-11T05:00:33.849Z,33.96
2019-01-11T05:01:33.834Z,34.25
2019-01-11T05:02:33.823Z,34.33
2019-01-11T05:03:33.846Z,33.35
2019-01-11T05:04:33.808Z,33.83
2019-01-11T05:05:33.790Z,33.03
2019-01-11T05:06:33.782Z,34.13
2019-01-11T05:07:33.768Z,33.81
2019-01-11T05:08:33.771Z,33.61
2019-01-11T05:09:33.761Z,33.51
2019-01-11T05:10:33.741Z,33.00
2019-01-11T05:11:33.726Z,33.51
2019-01-11T05:12:33.721Z,33.61
2019-01-11T05:13:33.715Z,33.22
2019-01-11T05:14:33.713Z,33.00
2019-01-11T05:15:33.698Z,33.60
2019-01-11T05:16:39.405Z,33.08
2019-01-11T05:17:34.669Z,33.28
2019-01-11T05:18:33.663Z,32.98
2019-01-11T05:19:33.689Z,32.59
2019-01-11T05:20:33.635Z,32.39
2019-01-11T05:21:33.628Z,32.89
2019-01-11T05:22:33.624Z,32.78
2019-01-11T05:23:33.615Z,32.87
2019-01-11T05:24:33.614Z,33.07
2019-01-11T05:25:33.581Z,32.27
2019-01-11T05:26:33.581Z,31.77
2019-01-11T05:27:33.557Z,32.17
2019-01-11T05:28:33.570Z,31.97
2019-01-11T05:29:33.549Z,32.47
2019-01-11T05:30:33.533Z,32.07
2019-01-11T05:31:33.514Z,31.87
2019-01-11T05:32:33.506Z,32.37
2019-01-11T05:33:33.498Z,32.07
2019-01-11T05:34:33.520Z,31.97
2019-01-11T05:35:33.472Z,32.87
2019-01-11T05:36:33.467Z,33.08
2019-01-11T05:37:33.455Z,32.87
2019-01-11T05:38:33.447Z,32.89
2019-01-11T05:39:33.435Z,32.98
2019-01-11T05:40:33.434Z,32.78
2019-01-11T05:41:33.421Z,32.59
2019-01-11T05:42:33.399Z,33.18
2019-01-11T05:43:33.398Z,32.90
2019-01-11T05:44:33.383Z,33.18
2019-01-11T05:45:33.382Z,32.78
2019-01-11T05:46:33.363Z,33.18
2019-01-11T05:47:33.354Z,33.08
2019-01-11T05:48:33.338Z,32.98
2019-01-11T05:49:33.335Z,33.78
2019-01-11T05:50:33.338Z,33.78
2019-01-11T05:51:33.318Z,33.08
2019-01-11T05:52:33.303Z,33.08
2019-01-11T05:53:33.292Z,33.68
2019-01-11T05:54:33.279Z,32.98
2019-01-11T05:55:33.281Z,33.70
2019-01-11T05:56:33.260Z,34.59
2019-01-11T05:57:33.247Z,34.00
2019-01-11T05:58:33.237Z,34.00
2019-01-11T05:59:33.229Z,34.09
2019-01-11T06:00:33.235Z,35.19
2019-01-11T06:01:33.207Z,35.69
2019-01-11T06:02:33.193Z,35.51
2019-01-11T06:03:33.185Z,35.91
2019-01-11T06:04:33.178Z,35.51
2019-01-11T06:05:33.193Z,36.11
2019-01-11T06:06:33.160Z,35.71
2019-01-11T06:07:33.148Z,35.99
2019-01-11T06:08:33.160Z,36.09
2019-01-11T06:09:33.124Z,35.79
2019-01-11T06:10:33.111Z,35.39
2019-01-11T06:11:33.114Z,36.09
2019-01-11T06:12:33.093Z,37.60
2019-01-11T06:13:33.086Z,36.61
2019-01-11T06:14:33.067Z,37.62
2019-01-11T06:15:33.058Z,37.52
2019-01-11T06:16:33.061Z,36.82
2019-01-11T06:17:33.043Z,36.82
2019-01-11T06:18:33.029Z,38.02
2019-01-11T06:19:33.015Z,37.94
2019-01-11T06:20:33.011Z,38.14
2019-01-11T06:21:33.017Z,38.16
2019-01-11T06:22:32.997Z,38.16
2019-01-11T06:23:32.975Z,38.98
2019-01-11T06:24:32.966Z,39.58
2019-01-11T06:25:32.998Z,39.87
2019-01-11T06:26:32.964Z,40.08
2019-01-11T06:27:32.932Z,39.98
2019-01-11T06:28:32.923Z,39.67
2019-01-11T06:29:32.919Z,39.87
2019-01-11T06:30:32.908Z,39.59
2019-01-11T06:31:32.922Z,40.30
2019-01-11T06:32:32.881Z,39.79
2019-01-11T06:33:32.873Z,39.69
2019-01-11T06:34:32.866Z,39.39
2019-01-11T06:35:32.875Z,40.11
2019-01-11T06:36:32.845Z,39.61
2019-01-11T06:37:32.841Z,39.81
2019-01-11T06:38:32.816Z,39.72
2019-01-11T06:39:32.808Z,39.51
2019-01-11T06:40:32.807Z,39.72
2019-01-11T06:41:32.790Z,40.03
2019-01-11T06:42:32.783Z,40.43
2019-01-11T06:43:32.765Z,39.73
2019-01-11T06:44:38.787Z,39.53
2019-01-11T06:45:33.740Z,41.15
2019-01-11T06:46:32.738Z,37.75
2019-01-11T06:47:32.738Z,36.15
2019-01-11T06:48:32.711Z,36.25
2019-01-11T06:49:32.700Z,36.65
2019-01-11T06:50:36.492Z,37.57
2019-01-11T06:51:32.678Z,37.66
2019-01-11T06:52:32.687Z,38.55
2019-01-11T06:53:32.654Z,37.95
2019-01-11T06:54:32.649Z,39.05
2019-01-11T06:55:32.635Z,37.55
2019-01-11T06:56:32.628Z,37.03
2019-01-11T06:57:32.645Z,37.73
2019-01-11T06:58:32.606Z,37.83
2019-01-11T06:59:32.596Z,37.73
2019-01-11T07:00:32.589Z,37.53
2019-01-11T07:01:32.573Z,37.61
2019-01-11T07:02:32.572Z,37.61
2019-01-11T07:03:32.562Z,37.19
2019-01-11T07:04:32.540Z,36.60
2019-01-11T07:05:32.532Z,36.49
2019-01-11T07:06:32.519Z,36.60
2019-01-11T07:07:32.517Z,36.99
2019-01-11T07:08:32.512Z,36.11
2019-01-11T07:09:32.493Z,36.31
2019-01-11T07:10:32.485Z,36.21
2019-01-11T07:11:32.468Z,37.71
2019-01-11T07:12:32.461Z,36.61
2019-01-11T07:13:32.457Z,36.81
2019-01-11T07:14:32.437Z,37.01
2019-01-11T07:15:32.425Z,36.51
2019-01-11T07:16:32.413Z,37.41
2019-01-11T07:17:32.404Z,36.99
2019-01-11T07:18:32.422Z,35.91
2019-01-11T07:19:32.387Z,36.21
2019-01-11T07:20:32.369Z,37.71
2019-01-11T07:21:32.357Z,36.40
2019-01-11T07:22:32.351Z,36.49
2019-01-11T07:23:32.342Z,36.40
2019-01-11T07:24:32.336Z,36.10
2019-01-11T07:25:32.316Z,36.11
2019-01-11T07:26:32.305Z,35.91
2019-01-11T07:27:32.296Z,36.91
2019-01-11T07:28:32.281Z,36.71
2019-01-11T07:29:32.283Z,37.11
2019-01-11T07:30:32.264Z,36.90
2019-01-11T07:31:32.250Z,35.89
2019-01-11T07:32:32.237Z,37.11
2019-01-11T07:33:32.232Z,37.21
2019-01-11T07:34:32.230Z,37.40
2019-01-11T07:35:32.208Z,36.98
2019-01-11T07:36:32.195Z,36.47
2019-01-11T07:37:32.199Z,36.86
2019-01-11T07:38:32.178Z,37.16
2019-01-11T07:39:32.183Z,37.14
2019-01-11T07:40:32.153Z,36.24
2019-01-11T07:41:32.144Z,36.26
2019-01-11T07:42:32.130Z,35.64
2019-01-11T07:43:32.121Z,35.64
2019-01-11T07:44:32.128Z,35.94
2019-01-11T07:45:32.097Z,35.05
2019-01-11T07:46:32.084Z,35.24
2019-01-11T07:47:32.078Z,35.24
2019-01-11T07:48:32.063Z,35.16
2019-01-11T07:49:32.050Z,34.46
2019-01-11T07:50:32.056Z,34.96
2019-01-11T07:51:32.036Z,34.88
2019-01-11T07:52:32.023Z,34.68
2019-01-11T07:53:32.015Z,34.78
2019-01-11T07:54:32.000Z,34.68
2019-01-11T07:55:32.010Z,34.26
2019-01-11T07:56:31.988Z,33.96
2019-01-11T07:57:31.973Z,33.96
2019-01-11T07:58:31.963Z,34.46
2019-01-11T07:59:31.947Z,34.66
2019-01-11T08:00:31.949Z,34.36
2019-01-11T08:01:31.928Z,34.16
2019-01-11T08:02:31.916Z,33.96
2019-01-11T08:03:31.904Z,33.66
2019-01-11T08:04:31.891Z,33.86
2019-01-11T08:05:31.890Z,33.96
2019-01-11T08:06:31.878Z,33.86
2019-01-11T08:07:31.856Z,34.36
2019-01-11T08:08:31.846Z,34.26
2019-01-11T08:09:31.836Z,34.18
2019-01-11T08:10:31.849Z,33.38
2019-01-11T08:11:31.813Z,33.98
2019-01-11T08:12:31.803Z,33.38
2019-01-11T08:13:31.795Z,34.58
2019-01-11T08:14:31.781Z,34.18
2019-01-11T08:15:31.772Z,34.38
2019-01-11T08:16:31.778Z,34.36
2019-01-11T08:17:31.746Z,33.86
2019-01-11T08:18:31.742Z,33.86
2019-01-11T08:19:31.724Z,34.06
2019-01-11T08:20:31.725Z,34.06
2019-01-11T08:21:31.723Z,34.26
2019-01-11T08:22:31.698Z,34.06
2019-01-11T08:23:31.686Z,33.66
2019-01-11T08:24:31.679Z,34.26
2019-01-11T08:25:31.662Z,33.66
2019-01-11T08:26:31.668Z,34.66
2019-01-11T08:27:31.664Z,33.76
2019-01-11T08:28:31.629Z,34.26
2019-01-11T08:29:31.621Z,33.56
2019-01-11T08:30:31.613Z,33.28
2019-01-11T08:31:34.790Z,33.18
2019-01-11T08:32:31.591Z,33.88
2019-01-11T08:33:31.577Z,34.48
2019-01-11T08:34:31.570Z,33.88
2019-01-11T08:35:31.564Z,33.88
2019-01-11T08:36:31.559Z,33.88
2019-01-11T08:37:31.543Z,34.58
2019-01-11T08:38:31.526Z,34.08
2019-01-11T08:39:32.524Z,34.46
2019-01-11T08:40:31.507Z,33.86
2019-01-11T08:41:31.518Z,33.56
2019-01-11T08:42:31.486Z,34.26
2019-01-11T08:43:31.485Z,34.46
2019-01-11T08:44:31.464Z,34.36
2019-01-11T08:45:31.456Z,34.56
2019-01-11T08:46:31.443Z,34.28
2019-01-11T08:47:31.448Z,34.38
2019-01-11T08:48:31.423Z,34.26
2019-01-11T08:49:31.413Z,33.86
2019-01-11T08:50:31.404Z,33.76
2019-01-11T08:51:31.395Z,34.26
2019-01-11T08:52:31.398Z,33.76
2019-01-11T08:53:31.372Z,33.86
2019-01-11T08:54:31.362Z,33.96
2019-01-11T08:55:31.346Z,34.06
2019-01-11T08:56:31.346Z,33.26
2019-01-11T08:57:31.345Z,33.58
2019-01-11T08:58:31.319Z,33.88
2019-01-11T08:59:31.316Z,34.00
2019-01-11T09:00:31.299Z,34.61
2019-01-11T09:01:31.296Z,34.53
2019-01-11T09:02:31.290Z,34.63
2019-01-11T09:03:31.268Z,34.05
2019-01-11T09:04:31.259Z,34.74
2019-01-11T09:05:31.241Z,34.55
2019-01-11T09:06:31.236Z,34.64
2019-01-11T09:07:31.240Z,35.06
2019-01-11T09:08:31.211Z,34.96
2019-01-11T09:09:31.200Z,35.68
2019-01-11T09:10:31.211Z,35.88
2019-01-11T09:11:31.179Z,36.48
2019-01-11T09:12:31.199Z,36.48
2019-01-11T09:13:31.158Z,36.20
2019-01-11T09:14:31.149Z,36.00
2019-01-11T09:15:31.137Z,36.50
2019-01-11T09:16:31.127Z,36.50
2019-01-11T09:17:31.112Z,36.20
2019-01-11T09:18:31.124Z,36.50
2019-01-11T09:19:31.091Z,36.50
2019-01-11T09:20:31.087Z,36.40
2019-01-11T09:21:31.076Z,36.61
2019-01-11T09:22:31.064Z,37.12
2019-01-11T09:23:31.074Z,37.12
2019-01-11T09:24:31.040Z,36.82
2019-01-11T09:25:31.030Z,37.50
2019-01-11T09:26:31.018Z,37.00
2019-01-11T09:27:31.012Z,35.39
2019-01-11T09:28:31.017Z,36.60
2019-01-11T09:29:30.991Z,36.58
2019-01-11T09:30:30.981Z,36.26
2019-01-11T09:31:30.967Z,36.35
2019-01-11T09:32:30.957Z,35.35
2019-01-11T09:33:30.965Z,35.13
2019-01-11T09:34:30.934Z,35.33
2019-01-11T09:35:30.922Z,34.51
2019-01-11T09:36:30.911Z,34.09
2019-01-11T09:37:30.928Z,34.39
2019-01-11T09:38:30.904Z,34.08
2019-01-11T09:39:38.519Z,34.38
2019-01-11T09:40:30.872Z,34.08
2019-01-11T09:41:30.865Z,34.28
2019-01-11T09:42:30.851Z,34.38
2019-01-11T09:43:30.867Z,34.48
2019-01-11T09:44:30.837Z,33.38
2019-01-11T09:45:30.820Z,33.66
2019-01-11T09:46:30.809Z,33.86
2019-01-11T09:47:30.795Z,33.26
2019-01-11T09:48:30.785Z,33.78
2019-01-11T09:49:30.797Z,34.28
2019-01-11T09:50:30.761Z,34.36
2019-01-11T09:51:30.752Z,33.56
2019-01-11T09:52:30.749Z,33.36
2019-01-11T09:53:30.734Z,33.47
2019-01-11T09:54:30.737Z,33.75
2019-01-11T09:55:30.720Z,32.36
2019-01-11T09:56:30.697Z,33.58
2019-01-11T09:57:30.689Z,33.78
2019-01-11T09:58:30.687Z,34.48
2019-01-11T09:59:35.065Z,33.98
2019-01-11T10:00:30.667Z,34.08
2019-01-11T10:01:30.649Z,34.48
2019-01-11T10:02:30.677Z,33.98
2019-01-11T10:03:30.624Z,33.88
2019-01-11T10:04:30.630Z,33.78
2019-01-11T10:05:30.601Z,34.08
2019-01-11T10:06:30.599Z,33.86
2019-01-11T10:07:30.586Z,33.38
2019-01-11T10:08:30.578Z,33.36
2019-01-11T10:09:30.592Z,33.26
2019-01-11T10:10:30.553Z,33.78
2019-01-11T10:11:30.541Z,33.66
2019-01-11T10:12:30.537Z,33.76
2019-01-11T10:13:30.520Z,33.66
2019-01-11T10:14:30.511Z,34.16
2019-01-11T10:15:30.531Z,33.36
2019-01-11T10:16:30.493Z,33.06
2019-01-11T10:17:30.478Z,34.06
2019-01-11T10:18:30.470Z,33.47
2019-01-11T10:19:30.463Z,33.16
2019-01-11T10:20:30.464Z,34.06
2019-01-11T10:21:30.438Z,33.76
2019-01-11T10:22:30.425Z,34.06
2019-01-11T10:23:30.420Z,34.06
2019-01-11T10:24:30.454Z,33.18
2019-01-11T10:25:30.414Z,33.16
2019-01-11T10:26:30.390Z,34.06
2019-01-11T10:27:30.377Z,33.56
2019-01-11T10:28:30.363Z,33.66
2019-01-11T10:29:30.359Z,33.47
2019-01-11T10:30:30.374Z,34.06
2019-01-11T10:31:30.336Z,33.26
2019-01-11T10:32:30.326Z,33.66
2019-01-11T10:33:35.966Z,34.06
2019-01-11T10:34:31.301Z,33.76
2019-01-11T10:35:30.313Z,34.46
2019-01-11T10:36:30.301Z,34.46
2019-01-11T10:37:30.273Z,34.48
2019-01-11T10:38:30.270Z,34.48
2019-01-11T10:39:30.252Z,34.88
2019-01-11T10:40:30.264Z,33.96
2019-01-11T10:41:30.235Z,33.26
2019-01-11T10:42:30.224Z,34.06
2019-01-11T10:43:30.211Z,33.48
2019-01-11T10:44:30.200Z,33.58
2019-01-11T10:45:30.186Z,34.08
2019-01-11T10:46:30.195Z,34.39
2019-01-11T10:47:30.166Z,34.00
2019-01-11T10:48:30.161Z,34.38
2019-01-11T10:49:30.142Z,33.29
2019-01-11T10:50:30.134Z,34.11
2019-01-11T10:51:30.139Z,34.61
2019-01-11T10:52:30.115Z,34.61
2019-01-11T10:53:30.108Z,34.63
2019-01-11T10:54:30.107Z,34.43
2019-01-11T10:55:30.086Z,34.53
2019-01-11T10:56:30.090Z,34.81
2019-01-11T10:57:30.063Z,34.81
2019-01-11T10:58:30.059Z,34.21
2019-01-11T10:59:30.043Z,34.91
2019-01-11T11:00:30.033Z,34.41
2019-01-11T11:01:30.034Z,34.61
2019-01-11T11:02:30.009Z,34.21
2019-01-11T11:03:29.997Z,34.51
2019-01-11T11:04:29.990Z,34.21
2019-01-11T11:05:29.979Z,34.71
2019-01-11T11:06:29.979Z,34.83
2019-01-11T11:07:29.965Z,35.03
2019-01-11T11:08:29.951Z,35.23
2019-01-11T11:09:29.935Z,34.44
2019-01-11T11:10:29.945Z,35.35
2019-01-11T11:11:29.936Z,35.14
2019-01-11T11:12:29.905Z,34.73
2019-01-11T11:13:29.892Z,35.03
2019-01-11T11:14:29.881Z,34.53
2019-01-11T11:15:29.874Z,34.81
2019-01-11T11:16:32.966Z,34.11
2019-01-11T11:17:29.853Z,34.50
2019-01-11T11:18:29.843Z,35.21
2019-01-11T11:19:29.839Z,34.39
2019-01-11T11:20:29.821Z,34.61
2019-01-11T11:21:34.677Z,34.51
2019-01-11T11:22:30.799Z,34.71
2019-01-11T11:23:29.783Z,34.21
2019-01-11T11:24:29.771Z,34.63
2019-01-11T11:25:30.187Z,34.33
2019-01-11T11:26:29.779Z,35.13
2019-01-11T11:27:29.742Z,34.53
2019-01-11T11:28:29.730Z,34.93
2019-01-11T11:29:29.720Z,34.64
2019-01-11T11:30:29.706Z,35.55
2019-01-11T11:31:29.701Z,35.25
2019-01-11T11:32:29.704Z,35.14
2019-01-11T11:33:29.681Z,34.53
2019-01-11T11:34:29.665Z,34.93
2019-01-11T11:35:29.661Z,35.21
2019-01-11T11:36:29.684Z,34.71
2019-01-11T11:37:29.703Z,34.51
2019-01-11T11:38:29.630Z,34.30
2019-01-11T11:39:29.608Z,32.59
2019-01-11T11:40:29.600Z,31.18
2019-01-11T11:41:29.592Z,30.58
2019-01-11T11:42:29.598Z,30.79
2019-01-11T11:43:29.566Z,31.70
2019-01-11T11:44:29.560Z,32.41
2019-01-11T11:45:29.548Z,32.91
2019-01-11T11:46:29.543Z,33.01
2019-01-11T11:47:29.547Z,32.70
2019-01-11T11:48:29.512Z,32.20
2019-01-11T11:49:29.506Z,32.81
2019-01-11T11:50:29.495Z,33.61
2019-01-11T11:51:29.483Z,33.53
2019-01-11T11:52:29.490Z,33.83
2019-01-11T11:53:29.458Z,33.84
2019-01-11T11:54:29.450Z,34.44
2019-01-11T11:55:29.438Z,34.14
2019-01-11T11:56:29.431Z,34.14
2019-01-11T11:57:29.446Z,34.96
2019-01-11T11:58:29.402Z,34.56
2019-01-11T11:59:29.398Z,34.76
2019-01-11T12:00:29.397Z,34.67
2019-01-11T12:01:29.433Z,34.88
2019-01-11T12:02:29.369Z,34.98
2019-01-11T12:03:29.368Z,35.19
2019-01-11T12:04:29.340Z,35.10
2019-01-11T12:05:29.327Z,35.80
2019-01-11T12:06:29.319Z,35.50
2019-01-11T12:07:29.309Z,36.30
2019-01-11T12:08:29.315Z,35.80
2019-01-11T12:09:29.285Z,36.20
2019-01-11T12:10:29.285Z,36.50
2019-01-11T12:11:29.266Z,36.41
2019-01-11T12:12:29.259Z,36.40
2019-01-11T12:13:29.260Z,36.60
2019-01-11T12:14:29.231Z,38.22
2019-01-11T12:15:29.223Z,37.52
2019-01-11T12:16:29.214Z,38.02
2019-01-11T12:17:29.201Z,37.32
2019-01-11T12:18:29.206Z,38.32
2019-01-11T12:19:29.184Z,37.72
2019-01-11T12:20:29.172Z,38.10
2019-01-11T12:21:29.167Z,38.20
2019-01-11T12:22:29.147Z,38.81
2019-01-11T12:23:29.150Z,38.70
2019-01-11T12:24:29.194Z,38.00
2019-01-11T12:25:29.118Z,37.68
2019-01-11T12:26:29.115Z,38.29
2019-01-11T12:27:29.096Z,37.50
2019-01-11T12:28:29.113Z,38.40
2019-01-11T12:29:29.069Z,38.40
2019-01-11T12:30:29.059Z,37.79
2019-01-11T12:31:29.056Z,37.90
2019-01-11T12:32:29.045Z,38.31
2019-01-11T12:33:29.031Z,37.98
2019-01-11T12:34:29.037Z,37.98
2019-01-11T12:35:29.016Z,37.28
2019-01-11T12:36:28.999Z,37.57
2019-01-11T12:37:28.985Z,37.87
2019-01-11T12:38:28.977Z,37.37
2019-01-11T12:39:28.985Z,37.87
2019-01-11T12:40:28.955Z,37.87
2019-01-11T12:41:28.944Z,37.57
2019-01-11T12:42:28.929Z,37.66
2019-01-11T12:43:28.920Z,37.79
2019-01-11T12:44:28.924Z,37.88
2019-01-11T12:45:28.900Z,38.09
2019-01-11T12:46:28.893Z,37.80
2019-01-11T12:47:28.872Z,38.09
2019-01-11T12:48:28.867Z,38.39
2019-01-11T12:49:28.877Z,38.59
2019-01-11T12:50:28.845Z,38.59
2019-01-11T12:51:28.837Z,39.29
2019-01-11T12:52:28.826Z,39.69